Tiempo atmosférico en la estación meteorológica de Aguilar De Campoo, Palencia (910 m.)



Fecha
DESCASC
Temp. máxima en grados centígrados (hora)
DESCASC
Temp. mínima en grados centígrados (hora)
DESCASC
Temp. media en grados centígrados
DESCASC
Racha de viento máxima en m/sg (hora)
DESCASC
Velocidad máxima media en intervalos de 10 minutos(hora)
DESCASC
Precipitaciones diarias en mm
DESCASC
Precipitaciones de 00:00 a 06:00 en mm
DESCASC
Precipitaciones de 06:00 a 12:00 en mm
DESCASC
Precipitaciones de 12:00 a 18:00 en mm
DESCASC
Precipitaciones de 18:00 a 24:00 en mm
DESCASC
31-03-2020 5.2 (18:50) -1.9 (02:30) 1.6 10.28 (13:20) 6.39 (11:10) 0.8 0 0 0.2 0.6
29-03-2020 11.4 (16:30) -2.3 (-00:0) 4.5 14.17 (17:30) 6.94 (16:10) 0 0 0 0 0
28-03-2020 15.5 (15:20) -4.1 (-00:0) 5.7 9.72 (16:30) 4.72 (17:30) 0 0 0 0 0
27-03-2020 12 (16:20) -3.3 (-00:0) 4.4 8.06 (13:30) 5 (10:10) 0 0 0 0 0
26-03-2020 9.6 (14:40) -2.9 (-00:0) 3.4 12.5 (19:40) 5.56 (13:20) 0 0 0 0 0
25-03-2020 15.4 (14:30) -1.3 (-00:0) 7 10.56 (16:30) 6.11 (15:10) 0 0 0 0 0
24-03-2020 15.3 (16:20) 3.6 (00:00) 9.5 8.06 (16:40) 4.72 (16:40) 0 0 0 0 0
23-03-2020 13.6 (15:30) -0.1 (00:00) 6.8 8.33 (14:00) 4.72 (14:00) 0 0 0 0 0
22-03-2020 14.7 (14:50) 1.8 (07:50) 8.2 9.17 (16:50) 5.28 (17:10) 0 0 0 0 0
21-03-2020 14.7 (15:50) 3.3 (00:00) 9 6.67 (16:00) 3.06 (13:50) 0 0 0 0 0
20-03-2020 13 (16:20) 1.7 (00:00) 7.4 5 (20:30) 3.06 (20:40) 0 0 0 0 0
19-03-2020 17 (13:40) 2.6 (00:00) 9.8 5.83 (12:50) 3.61 (12:50) 0 0 0 0 0
18-03-2020 18.4 (16:50) 0.5 (00:00) 9.4 4.72 (16:20) 2.5 (01:50) 0 0 0 0 0
17-03-2020 10 (11:50) 4.4 (00:00) 7.2 11.11 (10:10) 7.22 (10:10) 0 0 0 0 0
16-03-2020 7 (14:40) 2.4 (00:00) 4.7 17.5 (15:10) 7.5 (15:10) 0.2 0.2 0 0 0
15-03-2020 17.2 (15:30) -2 (-00:0) 7.6 12.22 (18:30) 7.22 (17:50) 0 0 0 0 0
14-03-2020 16.3 (17:00) -2.7 (-00:0) 6.8 4.72 (00:30) 3.33 (02:30) 0 0 0 0 0
13-03-2020 9.8 (15:30) 0.6 (23:59) 5.2 11.67 (15:00) 7.22 (16:40) 0 0 0 0 0
12-03-2020 12.4 (14:10) 3.7 (00:00) 8 11.94 (16:40) 6.67 (16:40) 0 0 0 0 0
11-03-2020 20.4 (16:10) 0 (00:00) 10.2 9.44 (15:30) 5 (14:00) 0 0 0 0 0
10-03-2020 19 (16:00) 1.2 (00:00) 10.1 8.61 (16:00) 4.72 (15:30) 0 0 0 0 0
09-03-2020 11.1 (14:10) 0.9 (00:00) 6 5.28 (16:40) 3.33 (16:40) 0 0 0 0 0
08-03-2020 13.3 (17:50) 0.3 (00:00) 6.8 10.28 (16:00) 5.28 (19:50) 0 0 0 0 0
07-03-2020 12.5 (16:40) 0.9 (00:00) 6.7 7.22 (16:40) 3.89 (16:40) 0.4 0.4 0 0 0
06-03-2020 7.4 (16:00) -0.1 (00:00) 3.7 10.28 (04:30) 5.83 (05:30) 2.8 0 2.8 0 0
05-03-2020 12.3 (14:50) 1 (00:00) 6.7 16.67 (10:40) 10 (11:00) 1.6 0 1.6 0 0
04-03-2020 16.1 (14:30) 5.1 (00:20) 10.6 9.44 (15:10) 6.11 (14:40) 0 0 0 0 0
03-03-2020 17.2 (15:30) 1.2 (00:00) 9.2 14.72 (11:50) 8.89 (13:40) 4.2 2.8 1.4 0 0
02-03-2020 9.6 (03:30) 1.6 (00:00) 5.6 26.67 (03:50) 10 (03:50) 14.2 13.6 0.6 0 0

Gráficas

Temp. máximas Temp. mínimas Temp. medias Precipitaciones Rachas de viento máximas Velocidades máximas media en intervalos de 10 minutos

Datos horarios

Fecha y hora oficial Temperatura (ºC) Velocidad del viento (km/h) Dirección del viento Racha (km/h) Dirección de racha Precipitación (mm) Presión (hPa) Tendencia (hPa) Humedad (%)
2020-03-31 23:00:00 4.5 10 Sudeste 21 Sudeste 0 -- -- 94
2020-03-31 22:00:00 4.4 9 Sur 22 Sur 0.2 -- -- 93
2020-03-31 21:00:00 4.5 13 Sur 27 Sur 0.4 -- -- 90
2020-03-31 20:00:00 4.9 14 Sur 37 Sur 0 -- -- 87
2020-03-31 19:00:00 5.2 19 Sur 33 Sur 0 -- -- 85
2020-03-31 18:00:00 4.8 14 Sur 32 Sur 0.2 -- -- 88
2020-03-31 17:00:00 4.7 16 Sur 31 Sur 0 -- -- 86
2020-03-31 16:00:00 4.1 12 Sudeste 32 Sudeste 0 -- -- 87
2020-03-31 15:00:00 3.4 14 Sudeste 28 Sudeste 0 -- -- 84
2020-03-31 14:00:00 3.5 19 Sudeste 37 Sudeste 0 -- -- 79
2020-03-31 13:00:00 2.6 18 Sudeste 34 Sudeste 0 -- -- 80
2020-03-31 12:00:00 1.6 21 Sudeste 34 Sudeste 0 -- -- 80
2020-03-31 11:00:00 0.6 19 Sudeste 32 Sudeste 0 -- -- 81
2020-03-31 10:00:00 0.2 19 Sur 35 Sudeste 0 -- -- 78
2020-03-31 09:00:00 -0.6 15 Sur 28 Sur 0 -- -- 80
2020-03-31 08:00:00 -1.2 16 Sudeste 26 Sudeste 0 -- -- 83
2020-03-31 07:00:00 -1.1 12 Sudeste 22 Sudeste 0 -- -- 85
2020-03-31 06:00:00 -1.5 6 Sudeste 16 Este 0 -- -- 86
2020-03-31 05:00:00 -1.9 7 Sudeste 18 Sudeste 0 -- -- 88
2020-03-31 04:00:00 -1.8 5 Sudeste 13 Sudeste 0 -- -- 90
2020-03-31 03:00:00 -1.8 7 Sur 13 Sur 0 -- -- 89
2020-03-31 02:00:00 -1.5 5 Sudeste 18 Sudeste 0 -- -- 83
2020-03-31 01:00:00 -0.7 9 Sur 18 Sudeste 0 -- -- 81
2020-03-31 00:00:00 -0.8 10 Sur 21 Sudeste 0 -- -- 87
2020-03-30 23:00:00 -0.5 7 Sudeste 19 Sudeste 0 -- -- 84
2020-03-30 22:00:00 -1 8 Sudeste 25 Sur 0 -- -- 83
2020-03-30 21:00:00 -0.2 7 Sudeste 22 Sur 0 -- -- 81
2020-03-30 20:00:00 0.1 15 Sur 37 Este 0 -- -- 79
2020-03-30 19:00:00 1.9 17 Este 35 Este 0 -- -- 66
2020-03-30 18:00:00 2.8 14 Sudeste 42 Sudeste 0 -- -- 66
2020-03-30 17:00:00 2.8 18 Sudeste 41 Este 0 -- -- 65
2020-03-30 16:00:00 3 22 Este 39 Este 0 -- -- 64
2020-03-30 15:00:00 2.8 16 Sudeste 37 Sur 0 -- -- 71
2020-03-30 14:00:00 0.5 15 Sudeste 32 Sur 0 -- -- 81
2020-03-30 13:00:00 0.5 13 Sudeste 36 Este 0 -- -- 82
2020-03-30 12:00:00 1.1 14 Sudeste 30 Este 0 -- -- 80
2020-03-30 11:00:00 0 12 Sudeste 36 Sur 0 -- -- 84
2020-03-30 10:00:00 -1.2 12 Sudeste 30 Este 0 -- -- 89
2020-03-30 09:00:00 -0.9 13 Sudeste 30 Sudeste 0.2 -- -- 87
2020-03-30 08:00:00 -0.9 9 Sudeste 32 Sudeste 0 -- -- 92
2020-03-30 07:00:00 -0.6 14 Sudeste 24 Este 0 -- -- 90
2020-03-30 06:00:00 -0.4 9 Sudeste 26 Sudeste 0 -- -- 86
2020-03-30 05:00:00 -0.1 9 Sudeste 36 Sudeste 0 -- -- 88
2020-03-30 04:00:00 0.2 13 Sudeste 32 Sudeste 0 -- -- 89
2020-03-30 03:00:00 1.1 10 Sudeste 27 Sudeste 0 -- -- 89
2020-03-30 02:00:00 1.3 11 Sudeste 30 Este 0 -- -- 91
2020-03-30 01:00:00 1.7 12 Sudeste 25 Sudeste 0 -- -- 89
2020-03-30 00:00:00 2.6 11 Sudeste 31 Sudeste 0 -- -- 88
2020-03-29 23:00:00 3 12 Sur 27 Sur 0 -- -- 88
2020-03-29 22:00:00 4 10 Sudeste 27 Sudeste 0 -- -- 89
2020-03-29 21:00:00 4.4 13 Sudeste 26 Sur 0 -- -- 91
2020-03-29 20:00:00 5.4 18 Sur 32 Sudeste 0 -- -- 88
2020-03-29 19:00:00 7.7 15 Sudeste 37 Sur 0 -- -- 73
2020-03-29 18:00:00 9.6 22 Sur 51 Sur 0 -- -- 64
2020-03-29 17:00:00 11.1 16 Sudeste 48 Sur 0 -- -- 49
2020-03-29 16:00:00 10.7 23 Sur 44 Sur 0 -- -- 61
2020-03-29 15:00:00 10.9 24 Sudeste 40 Sudeste 0 -- -- 57
2020-03-29 14:00:00 10.6 21 Sur 40 Sudeste 0 -- -- 55
2020-03-29 13:00:00 10.2 18 Sur 31 Sudeste 0 -- -- 56
2020-03-29 12:00:00 9.1 17 Sudeste 29 Sudeste 0 -- -- 57
2020-03-29 11:00:00 7.3 11 Sudeste 24 Sudeste 0 -- -- 67
2020-03-29 10:00:00 2.1 6 Este 11 Este 0 -- -- 93
2020-03-29 09:00:00 -1.4 3 Nordeste 14 Este 0 -- -- 98
2020-03-29 08:00:00 -2.1 0 Calma 14 Este 0 -- -- 97
2020-03-29 07:00:00 -1.7 5 Este 12 Este 0 -- -- 97
2020-03-29 06:00:00 -1.4 6 Este 13 Este 0 -- -- 97
2020-03-29 05:00:00 -0.7 7 Este 15 Este 0 -- -- 95
2020-03-29 03:00:00 0.4 2 Este 9 Este 0 -- -- 93
2020-03-29 01:00:00 1.3 0 Calma 8 Este 0 -- -- 92
2020-03-29 00:00:00 2.2 6 Sudeste 13 Sudeste 0 -- -- 92
2020-03-28 23:00:00 3.5 4 Este 7 Este 0 -- -- 88
2020-03-28 22:00:00 5.6 6 Sur 24 Sudeste 0 -- -- 86
2020-03-28 21:00:00 6.5 10 Sur 19 Sur 0 -- -- 84
2020-03-28 20:00:00 7.5 12 Sudeste 22 Sudeste 0 -- -- 79
2020-03-28 19:00:00 10.8 12 Sur 24 Sudeste 0 -- -- 66
2020-03-28 18:00:00 13.1 13 Sudeste 29 Sur 0 -- -- 52
2020-03-28 17:00:00 14.3 14 Sudeste 35 Sur 0 -- -- 44
2020-03-28 16:00:00 14.8 12 Sudeste 27 Sur 0 -- -- 39
2020-03-28 15:00:00 15.4 9 Oeste 17 Sudoeste 0 -- -- 35
2020-03-28 14:00:00 14.4 7 Sudoeste 17 Sudoeste 0 -- -- 31
2020-03-28 13:00:00 13.3 8 Sudoeste 16 Sudeste 0 -- -- 35
2020-03-28 12:00:00 11.5 5 Sur 12 Oeste 0 -- -- 44
2020-03-28 11:00:00 9.4 4 Oeste 12 Sudoeste 0 -- -- 54
2020-03-28 10:00:00 5.8 5 Noroeste 9 Noroeste 0 -- -- 67
2020-03-28 09:00:00 1.2 2 Sudeste 7 Este 0 -- -- 84
2020-03-28 08:00:00 -3.1 2 Este 6 Este 0 -- -- 91
2020-03-28 07:00:00 -3.9 3 Este 6 Este 0 -- -- 90
2020-03-28 06:00:00 -3.3 5 Este 8 Este 0 -- -- 91
2020-03-28 05:00:00 -2.8 2 Nordeste 10 Este 0 -- -- 89
2020-03-28 04:00:00 -2.5 2 Este 9 Este 0 -- -- 89
2020-03-28 03:00:00 -1.7 5 Este 10 Este 0 -- -- 87
2020-03-28 02:00:00 -0.7 7 Este 13 Este 0 -- -- 85
2020-03-28 01:00:00 0.2 3 Nordeste 14 Este 0 -- -- 86
2020-03-28 00:00:00 0.9 3 Este 12 Nordeste 0 -- -- 87
2020-03-27 23:00:00 2.3 2 Norte 8 Sudeste 0 -- -- 82
2020-03-27 22:00:00 3.4 6 Sudeste 13 Sur 0 -- -- 80
2020-03-27 21:00:00 5.1 6 Sur 18 Sur 0 -- -- 73
2020-03-27 20:00:00 6.4 8 Sudeste 16 Este 0 -- -- 68
2020-03-27 19:00:00 8.8 9 Sudeste 23 Sudeste 0 -- -- 59
2020-03-27 18:00:00 10.8 11 Sudeste 21 Sur 0 -- -- 51
2020-03-27 17:00:00 11.7 12 Sur 24 Sur 0 -- -- 36
2020-03-27 16:00:00 11.8 10 Sur 24 Sur 0 -- -- 33
2020-03-27 15:00:00 11.4 12 Sur 27 Sur 0 -- -- 34
2020-03-27 14:00:00 10.3 15 Sur 29 Sur 0 -- -- 35
2020-03-27 13:00:00 8.7 15 Sur 24 Sur 0 -- -- 47
2020-03-27 12:00:00 7.1 12 Sur 26 Sur 0 -- -- 55
2020-03-27 11:00:00 5 15 Sur 28 Sur 0 -- -- 61
2020-03-27 10:00:00 3.9 17 Sur 28 Sudeste 0 -- -- 64
2020-03-27 09:00:00 1.9 9 Sur 16 Sur 0 -- -- 75
2020-03-27 08:00:00 -2.3 10 Sudeste 16 Sudeste 0 -- -- 91
2020-03-27 07:00:00 -3.2 5 Sudeste 14 Sur 0 -- -- 92
2020-03-27 06:00:00 -2.9 6 Sudeste 12 Sudeste 0 -- -- 92
2020-03-27 05:00:00 -1.8 4 Sudeste 17 Sur 0 -- -- 90
2020-03-27 04:00:00 -1.7 9 Sudeste 12 Sudeste 0 -- -- 89
2020-03-27 03:00:00 -1.1 5 Este 12 Sudeste 0 -- -- 87
2020-03-27 02:00:00 -0.5 6 Sudeste 19 Sudeste 0 -- -- 84
2020-03-27 01:00:00 0.4 10 Sur 24 Este 0 -- -- 78
2020-03-27 00:00:00 1 7 Sur 22 Sudeste 0 -- -- 81
2020-03-26 23:00:00 1.5 10 Sudeste 27 Sudeste 0 -- -- 78
2020-03-26 22:00:00 2.1 10 Sudeste 20 Sur 0 -- -- 78
2020-03-26 21:00:00 2.5 10 Sur 26 Sudeste 0 -- -- 83
2020-03-26 20:00:00 3.5 12 Sur 45 Sudeste 0 -- -- 80
2020-03-26 19:00:00 6.4 13 Sudeste 39 Sudeste 0 -- -- 60
2020-03-26 18:00:00 8.7 8 Nordeste 37 Sur 0 -- -- 51
2020-03-26 17:00:00 8.7 16 Sudeste 40 Sudeste 0 -- -- 55
2020-03-26 16:00:00 9.6 16 Sur 36 Sudeste 0 -- -- 51
2020-03-26 15:00:00 9.6 16 Sudeste 35 Sudeste 0 -- -- 57
2020-03-26 14:00:00 8.9 18 Sudeste 43 Sur 0 -- -- 51
2020-03-26 13:00:00 9.1 17 Sudeste 43 Este 0 -- -- 47
2020-03-26 12:00:00 8.6 14 Sudeste 37 Sudeste 0 -- -- 55
2020-03-26 11:00:00 7.3 7 Norte 30 Sudeste 0 -- -- 56
2020-03-26 10:00:00 5.6 8 Nordeste 20 Sudeste 0 -- -- 65
2020-03-26 09:00:00 1.4 4 Este 13 Este 0 -- -- 84
2020-03-26 08:00:00 -2.6 0 Calma 15 Este 0 -- -- 91
2020-03-26 07:00:00 -2.6 4 Este 18 Este 0 -- -- 92
2020-03-26 06:00:00 -2.2 5 Este 14 Sudeste 0 -- -- 90
2020-03-26 05:00:00 0.3 7 Sur 15 Sur 0 -- -- 90
2020-03-26 04:00:00 1.1 7 Sur 21 Sur 0 -- -- 88
2020-03-26 03:00:00 1.6 13 Sur 20 Sur 0 -- -- 86
2020-03-26 02:00:00 2.1 9 Sur 20 Sur 0 -- -- 83
2020-03-26 01:00:00 2.4 10 Sur 21 Sudeste 0 -- -- 87
2020-03-26 00:00:00 2.9 13 Sudeste 23 Sudeste 0 -- -- 85
2020-03-25 23:00:00 3.9 4 Sur 17 Sur 0 -- -- 81
2020-03-25 22:00:00 3.5 4 Sur 14 Sur 0 -- -- 73
2020-03-25 21:00:00 4.7 3 Nordeste 21 Sur 0 -- -- 74
2020-03-25 20:00:00 7.8 12 Sur 27 Sur 0 -- -- 68
2020-03-25 19:00:00 12.3 3 Este 14 Nordeste 0 -- -- 28
2020-03-25 18:00:00 13.6 6 Noroeste 35 Sudeste 0 -- -- 33
2020-03-25 17:00:00 14.2 16 Sudeste 38 Sur 0 -- -- 43
2020-03-25 16:00:00 14.5 20 Sur 36 Sudeste 0 -- -- 39
2020-03-25 15:00:00 15.3 18 Sudeste 37 Sur 0 -- -- 39
2020-03-25 14:00:00 15 18 Sudeste 35 Sur 0 -- -- 36
2020-03-25 13:00:00 14.4 12 Sudeste 32 Sudeste 0 -- -- 39
2020-03-25 12:00:00 13.2 14 Sudeste 28 Este 0 -- -- 44
2020-03-25 11:00:00 10.4 3 Norte 9 Oeste 0 -- -- 68
2020-03-25 10:00:00 6.9 4 Noroeste 8 Noroeste 0 -- -- 84
2020-03-25 09:00:00 3 0 Calma 5 Sudeste 0 -- -- 95
2020-03-25 08:00:00 -1.1 3 Sudeste 8 Este 0 -- -- 96
2020-03-25 07:00:00 -1.3 0 Calma 10 Este 0 -- -- 96
2020-03-25 06:00:00 -0.8 0 Calma 2 Este 0 -- -- 95
2020-03-25 05:00:00 0 0 Calma 11 Este 0 -- -- 93
2020-03-25 04:00:00 1.8 6 Este 10 Este 0 -- -- 95
2020-03-25 03:00:00 2.6 0 Calma 13 Este 0 -- -- 94
2020-03-25 02:00:00 3.9 6 Este 14 Este 0 -- -- 92
2020-03-25 01:00:00 5.1 7 Este 14 Este 0 -- -- 92
2020-03-25 00:00:00 5.4 3 Norte 12 Sudeste 0 -- -- 92
2020-03-24 23:00:00 5.4 9 Sudeste 18 Sudeste 0 -- -- 89
2020-03-24 22:00:00 7.3 8 Sudeste 14 Sudeste 0 -- -- 85
2020-03-24 21:00:00 9.3 8 Sudeste 13 Sudeste 0 -- -- 81
2020-03-24 20:00:00 11.1 8 Sudeste 17 Sudeste 0 -- -- 72
2020-03-24 19:00:00 13.3 9 Sur 22 Sur 0 -- -- 57
2020-03-24 18:00:00 14.2 11 Sur 29 Sudeste 0 -- -- 53
2020-03-24 17:00:00 14.4 14 Sur 29 Sudeste 0 -- -- 51
2020-03-24 16:00:00 14.5 11 Sur 25 Sudeste 0 -- -- 51
2020-03-24 15:00:00 14.9 13 Sur 27 Sudeste 0 -- -- 53
2020-03-24 14:00:00 14.8 13 Sur 26 Sur 0 -- -- 51
2020-03-24 13:00:00 13.9 14 Sur 28 Sur 0 -- -- 56
2020-03-24 12:00:00 13.2 11 Sudoeste 27 Sur 0 -- -- 60
2020-03-24 11:00:00 10.9 4 Sur 22 Sudeste 0 -- -- 71
2020-03-24 10:00:00 8.8 9 Sur 22 Sur 0 -- -- 81
2020-03-24 09:00:00 7.2 9 Sur 14 Sur 0 -- -- 94
2020-03-24 08:00:00 3.6 6 Este 13 Sudeste 0 -- -- 96
2020-03-24 07:00:00 4.2 6 Este 11 Este 0 -- -- 96
2020-03-24 06:00:00 4.2 6 Este 12 Este 0 -- -- 97
2020-03-24 05:00:00 4.4 0 Calma 9 Este 0 -- -- 94
2020-03-24 04:00:00 5.9 6 Este 11 Sudeste 0 -- -- 92
2020-03-24 03:00:00 6.8 6 Este 11 Este 0 -- -- 92
2020-03-24 02:00:00 6.6 5 Sur 12 Sur 0 -- -- 94
2020-03-24 01:00:00 6.1 2 Nordeste 12 Sudeste 0 -- -- 95
2020-03-24 00:00:00 6.5 8 Sudeste 13 Sudeste 0 -- -- 93
2020-03-23 23:00:00 7.9 10 Sudeste 15 Sudeste 0 -- -- 91
2020-03-23 22:00:00 8.4 9 Sudeste 16 Sudeste 0 -- -- 90
2020-03-23 21:00:00 8.8 7 Sudeste 22 Sudeste 0 -- -- 88
2020-03-23 20:00:00 9.4 10 Sudeste 21 Sudeste 0 -- -- 84
2020-03-23 19:00:00 11 9 Sudeste 24 Sur 0 -- -- 76
2020-03-23 18:00:00 12 10 Sudeste 22 Sur 0 -- -- 67
2020-03-23 17:00:00 13.3 12 Sur 24 Sur 0 -- -- 54
2020-03-23 16:00:00 12.7 14 Sur 25 Sur 0 -- -- 55
2020-03-23 15:00:00 12.7 15 Sur 25 Sur 0 -- -- 53
2020-03-23 14:00:00 12.7 17 Sur 30 Sur 0 -- -- 59
2020-03-23 13:00:00 12.4 8 Sur 21 Sur 0 -- -- 66
2020-03-23 12:00:00 10.4 8 Sudoeste 23 Sur 0 -- -- 73
2020-03-23 11:00:00 8.6 10 Sur 21 Sudeste 0 -- -- 83
2020-03-23 10:00:00 6.4 5 Sudeste 12 Sudeste 0 -- -- 93
2020-03-23 09:00:00 3 2 Sudeste 12 Este 0 -- -- 97
2020-03-23 08:00:00 0.5 7 Este 14 Este 0 -- -- 97
2020-03-23 07:00:00 0.2 9 Este 14 Este 0 -- -- 97
2020-03-23 06:00:00 0.7 4 Nordeste 10 Este 0 -- -- 97
2020-03-23 05:00:00 0.9 8 Este 14 Este 0 -- -- 96
2020-03-23 04:00:00 1.6 0 Calma 11 Sudeste 0 -- -- 95
2020-03-23 03:00:00 3 4 Este 13 Sudeste 0 -- -- 92
2020-03-23 02:00:00 4.5 6 Sudeste 19 Sudeste 0 -- -- 94
2020-03-23 01:00:00 5.3 3 Sudeste 19 Sudeste 0 -- -- 92
2020-03-23 00:00:00 5.4 10 Sudeste 17 Sudeste 0 -- -- 94
2020-03-22 23:00:00 5.8 6 Sur 13 Sudeste 0 -- -- 92
2020-03-22 22:00:00 6.5 3 Sudoeste 18 Sur 0 -- -- 90
2020-03-22 21:00:00 7 7 Sudeste 20 Este 0 -- -- 90
2020-03-22 20:00:00 8.4 5 Sudeste 17 Sudeste 0 -- -- 82
2020-03-22 19:00:00 10.5 6 Sur 28 Sudeste 0 -- -- 68
2020-03-22 18:00:00 12.5 15 Sur 32 Este 0 -- -- 64
2020-03-22 17:00:00 13.7 17 Sudeste 33 Sudeste 0 -- -- 57
2020-03-22 16:00:00 14.4 14 Sudeste 31 Sudeste 0 -- -- 54
2020-03-22 15:00:00 14.5 16 Sudeste 32 Sudeste 0 -- -- 54
2020-03-22 14:00:00 14.3 14 Sudeste 30 Sudeste 0 -- -- 58
2020-03-22 13:00:00 12.8 13 Sur 24 Sur 0 -- -- 65
2020-03-22 12:00:00 12.1 12 Sudeste 27 Sur 0 -- -- 71
2020-03-22 11:00:00 11.2 13 Sur 23 Sudeste 0 -- -- 76
2020-03-22 10:00:00 8.3 4 Sur 9 Sudoeste 0 -- -- 87
2020-03-22 09:00:00 4.7 3 Este 8 Este 0 -- -- 96
2020-03-22 08:00:00 2.1 4 Este 7 Este 0 -- -- 97
2020-03-22 07:00:00 2.5 0 Calma 11 Este 0 -- -- 95
2020-03-22 06:00:00 3.3 8 Este 12 Este 0 -- -- 96
2020-03-22 05:00:00 4.2 2 Sudeste 14 Este 0 -- -- 92
2020-03-22 04:00:00 5.4 5 Este 12 Este 0 -- -- 93
2020-03-22 03:00:00 6.2 0 Calma 5 Este 0 -- -- 91
2020-03-22 02:00:00 7.2 4 Este 8 Este 0 -- -- 90
2020-03-22 01:00:00 7.2 2 Nordeste 6 Este 0 -- -- 92
2020-03-22 00:00:00 7.2 3 Sur 10 Sudeste 0 -- -- 89
2020-03-21 23:00:00 6.5 0 Calma 4 Noroeste 0 -- -- 88
2020-03-21 22:00:00 8.3 6 Este 10 Este 0 -- -- 83
2020-03-21 21:00:00 9.6 0 Calma 2 Norte 0 -- -- 83
2020-03-21 20:00:00 10.7 0 Calma 12 Oeste 0 -- -- 76
2020-03-21 19:00:00 13 4 Oeste 13 Noroeste 0 -- -- 65
2020-03-21 18:00:00 13.7 7 Noroeste 17 Noroeste 0 -- -- 66
2020-03-21 17:00:00 14 8 Oeste 20 Noroeste 0 -- -- 62
2020-03-21 16:00:00 14.2 11 Noroeste 24 Noroeste 0 -- -- 61
2020-03-21 15:00:00 13.8 6 Sudoeste 19 Sudoeste 0 -- -- 62
2020-03-21 14:00:00 13.4 10 Sur 21 Sudoeste 0 -- -- 67
2020-03-21 13:00:00 12.7 10 Sudoeste 19 Sur 0 -- -- 70
2020-03-21 12:00:00 11.9 8 Sur 13 Sur 0 -- -- 71
2020-03-21 11:00:00 10.1 5 Sudoeste 10 Sudoeste 0 -- -- 81
2020-03-21 10:00:00 8.6 4 Sudoeste 11 Sudoeste 0 -- -- 87
2020-03-21 09:00:00 6 7 Sur 10 Sur 0 -- -- 99
2020-03-21 08:00:00 4.3 2 Sudeste 7 Este 0 -- -- 97
2020-03-21 07:00:00 5.3 2 Nordeste 8 Nordeste 0 -- -- 98
2020-03-21 06:00:00 5.1 4 Este 10 Sudeste 0 -- -- 98
2020-03-21 05:00:00 4.4 2 Sur 4 Sur 0 -- -- 98
2020-03-21 04:00:00 3.3 0 Calma 8 Este 0 -- -- 95
2020-03-21 03:00:00 4.2 0 Calma 5 Este 0 -- -- 94
2020-03-21 02:00:00 5.4 2 Norte 7 Oeste 0 -- -- 92
2020-03-21 01:00:00 7.2 0 Calma 5 Este 0 -- -- 89
2020-03-21 00:00:00 8 3 Este 6 Este 0 -- -- 89
2020-03-20 23:00:00 8.4 2 Norte 12 Sudoeste 0 -- -- 88
2020-03-20 22:00:00 8.8 8 Sudoeste 17 Sudoeste 0 -- -- 87
2020-03-20 21:00:00 9.4 9 Sur 18 Sur 0 -- -- 83
2020-03-20 20:00:00 10.5 6 Sur 14 Sudoeste 0 -- -- 81
2020-03-20 19:00:00 12.1 0 Calma 8 Norte 0 -- -- 78
2020-03-20 18:00:00 12.6 3 Norte 18 Oeste 0 -- -- 69
2020-03-20 17:00:00 12.9 10 Oeste 17 Norte 0 -- -- 69
2020-03-20 16:00:00 12.7 3 Oeste 13 Noroeste 0 -- -- 70
2020-03-20 15:00:00 11.8 5 Noroeste 10 Norte 0 -- -- 73
2020-03-20 14:00:00 11.4 3 Norte 10 Sur 0 -- -- 74
2020-03-20 13:00:00 10.5 3 Noroeste 8 Noroeste 0 -- -- 78
2020-03-20 12:00:00 8.4 0 Calma 6 Sudoeste 0 -- -- 86
2020-03-20 11:00:00 7.7 3 Noroeste 9 Sudeste 0 -- -- 90
2020-03-20 10:00:00 5.7 2 Oeste 3 Sur 0 -- -- 96
2020-03-20 09:00:00 4.1 0 Calma 12 Este 0 -- -- 97
2020-03-20 08:00:00 2.8 3 Nordeste 9 Este 0 -- -- 98
2020-03-20 07:00:00 1.8 4 Nordeste 14 Este 0 -- -- 97
2020-03-20 06:00:00 2.4 3 Nordeste 12 Este 0 -- -- 97
2020-03-20 05:00:00 2.4 3 Nordeste 8 Este 0 -- -- 96
2020-03-20 04:00:00 3 0 Calma 12 Este 0 -- -- 95
2020-03-20 03:00:00 3.3 3 Este 9 Este 0 -- -- 95
2020-03-20 02:00:00 3.6 0 Calma 7 Este 0 -- -- 94
2020-03-20 01:00:00 4.9 0 Calma 7 Este 0 -- -- 92
2020-03-20 00:00:00 6.3 3 Nordeste 5 Este 0 -- -- 90
2020-03-19 23:00:00 7.5 0 Calma 3 Norte 0 -- -- 89
2020-03-19 22:00:00 9 0 Calma 9 Este 0 -- -- 86
2020-03-19 21:00:00 10.8 3 Sudoeste 13 Sur 0 -- -- 82
2020-03-19 20:00:00 11.9 8 Sudoeste 16 Sur 0 -- -- 79
2020-03-19 19:00:00 13.2 6 Sur 12 Sudoeste 0 -- -- 70
2020-03-19 18:00:00 15.3 5 Noroeste 15 Noroeste 0 -- -- 53
2020-03-19 17:00:00 16.4 9 Noroeste 17 Oeste 0 -- -- 42
2020-03-19 16:00:00 17 6 Oeste 19 Oeste 0 -- -- 44
2020-03-19 15:00:00 16.4 10 Oeste 21 Oeste 0 -- -- 41
2020-03-19 14:00:00 16.7 12 Oeste 21 Oeste 0 -- -- 39
2020-03-19 13:00:00 16.5 12 Noroeste 21 Noroeste 0 -- -- 41
2020-03-19 12:00:00 14.8 8 Noroeste 17 Oeste 0 -- -- 45
2020-03-19 11:00:00 12.8 4 Noroeste 12 Noroeste 0 -- -- 66
2020-03-19 10:00:00 8.7 3 Sur 5 Sur 0 -- -- 92
2020-03-19 09:00:00 5 0 Calma 3 Sur 0 -- -- 99
2020-03-19 08:00:00 2.7 0 Calma 3 Este 0 -- -- 98
2020-03-19 07:00:00 3 0 Calma 7 Este 0 -- -- 97
2020-03-19 06:00:00 2.9 0 Calma 6 Este 0 -- -- 95
2020-03-19 05:00:00 3.7 0 Calma 6 Este 0 -- -- 95
2020-03-19 04:00:00 4.3 2 Este 8 Este 0 -- -- 95
2020-03-19 03:00:00 4.7 0 Calma 4 Este 0 -- -- 93
2020-03-19 02:00:00 5.7 0 Calma 8 Este 0 -- -- 92
2020-03-19 01:00:00 6.6 4 Este 9 Este 0 -- -- 91
2020-03-19 00:00:00 7 0 Calma 4 Este 0 -- -- 88
2020-03-18 23:00:00 8.6 3 Este 12 Sur 0 -- -- 85
2020-03-18 22:00:00 10.7 2 Sudoeste 12 Sur 0 -- -- 80
2020-03-18 21:00:00 11.6 4 Sudoeste 12 Sur 0 -- -- 79
2020-03-18 20:00:00 11.7 0 Calma 5 Sudoeste 0 -- -- 79
2020-03-18 19:00:00 15 0 Calma 7 Oeste 0 -- -- 69
2020-03-18 18:00:00 17.9 4 Noroeste 12 Noroeste 0 -- -- 55
2020-03-18 17:00:00 18.4 6 Oeste 17 Sudoeste 0 -- -- 51
2020-03-18 16:00:00 18 8 Noroeste 17 Oeste 0 -- -- 54
2020-03-18 15:00:00 17.6 9 Oeste 16 Noroeste 0 -- -- 53
2020-03-18 14:00:00 16.2 4 Noroeste 14 Oeste 0 -- -- 58
2020-03-18 13:00:00 14.6 6 Norte 13 Noroeste 0 -- -- 62
2020-03-18 12:00:00 11.4 6 Sur 11 Sur 0 -- -- 82
2020-03-18 11:00:00 7.2 7 Noroeste 12 Noroeste 0 -- -- 100
2020-03-18 10:00:00 4.5 0 Calma 4 Este 0 -- -- 100
2020-03-18 09:00:00 2.4 0 Calma 5 Sudeste 0 -- -- 100
2020-03-18 08:00:00 1.2 0 Calma 4 Sudeste 0 -- -- 99
2020-03-18 07:00:00 0.5 0 Calma 6 Sudeste 0 -- -- 98
2020-03-18 06:00:00 0.7 0 Calma 5 Sudeste 0 -- -- 97
2020-03-18 05:00:00 1.5 5 Este 9 Este 0 -- -- 97
2020-03-18 04:00:00 2 0 Calma 9 Este 0 -- -- 97
2020-03-18 03:00:00 2.8 6 Este 13 Este 0 -- -- 96
2020-03-18 02:00:00 3.7 6 Este 12 Este 0 -- -- 96
2020-03-18 01:00:00 4.4 8 Este 12 Este 0 -- -- 95
2020-03-18 00:00:00 5.5 4 Este 12 Sudeste 0 -- -- 93
2020-03-17 23:00:00 7.5 3 Nordeste 9 Este 0 -- -- 92
2020-03-17 22:00:00 8.1 4 Sudeste 8 Sudeste 0 -- -- 91
2020-03-17 21:00:00 8.2 5 Sudeste 10 Sudeste 0 -- -- 91
2020-03-17 20:00:00 8.4 5 Sudeste 12 Sudeste 0 -- -- 90
2020-03-17 19:00:00 8.5 7 Sur 18 Sur 0 -- -- 89
2020-03-17 18:00:00 8.7 8 Sudeste 18 Sur 0 -- -- 88
2020-03-17 17:00:00 8.9 13 Sur 22 Sur 0 -- -- 86
2020-03-17 16:00:00 8.8 13 Sur 24 Sudeste 0 -- -- 86
2020-03-17 15:00:00 8.9 16 Sudeste 32 Sur 0 -- -- 84
2020-03-17 14:00:00 8.8 14 Sudeste 31 Sudeste 0 -- -- 83
2020-03-17 13:00:00 9 17 Sudeste 30 Sudeste 0 -- -- 82
2020-03-17 12:00:00 9.5 17 Sudeste 33 Sudeste 0 -- -- 79
2020-03-17 11:00:00 8.8 13 Sur 40 Sudeste 0 -- -- 81
2020-03-17 10:00:00 7.9 19 Sur 34 Sur 0 -- -- 83
2020-03-17 09:00:00 6.2 12 Sur 30 Sudeste 0 -- -- 86
2020-03-17 08:00:00 5.1 10 Sur 30 Sur 0 -- -- 89
2020-03-17 07:00:00 4.9 19 Sur 32 Sudeste 0 -- -- 89
2020-03-17 06:00:00 4.8 10 Sudeste 31 Este 0 -- -- 87
2020-03-17 05:00:00 4.8 12 Sudeste 31 Sur 0 -- -- 84
2020-03-17 04:00:00 4.8 15 Sur 28 Sur 0 -- -- 84
2020-03-17 03:00:00 4.8 14 Sur 30 Sur 0 -- -- 82
2020-03-17 02:00:00 4.9 13 Sudeste 31 Sudeste 0 -- -- 81
2020-03-17 01:00:00 4.7 13 Sur 33 Sudeste 0 -- -- 78
2020-03-17 00:00:00 4.4 15 Sudeste 38 Sudeste 0 -- -- 82
2020-03-16 23:00:00 4.1 20 Sudeste 41 Sudeste 0 -- -- 84
2020-03-16 22:00:00 4.1 14 Sudeste 46 Este 0 -- -- 82
2020-03-16 21:00:00 4.7 18 Sudeste 38 Sudeste 0 -- -- 78
2020-03-16 20:00:00 4.3 16 Sudeste 46 Este 0 -- -- 78
2020-03-16 19:00:00 4.7 16 Sudeste 49 Sudeste 0 -- -- 78
2020-03-16 18:00:00 5.1 18 Sudeste 43 Sudeste 0 -- -- 77
2020-03-16 17:00:00 6.1 14 Sudeste 44 Sudeste 0 -- -- 73
2020-03-16 16:00:00 6.3 21 Sudeste 63 Sudeste 0 -- -- 73
2020-03-16 15:00:00 6.8 18 Sudeste 49 Este 0 -- -- 63
2020-03-16 14:00:00 5.4 19 Sur 43 Sudeste 0 -- -- 71
2020-03-16 13:00:00 5.6 18 Sudeste 50 Este 0 -- -- 70
2020-03-16 12:00:00 5.5 17 Sudeste 46 Sudeste 0 -- -- 66
2020-03-16 11:00:00 5.1 23 Sudeste 53 Este 0 -- -- 68
2020-03-16 10:00:00 4.5 22 Sudeste 51 Sudeste 0 -- -- 71
2020-03-16 09:00:00 4.1 17 Sudeste 40 Sudeste 0 -- -- 71
2020-03-16 08:00:00 4.1 14 Sudeste 39 Este 0 -- -- 68
2020-03-16 07:00:00 3.6 18 Sur 41 Sudeste 0 -- -- 73
2020-03-16 06:00:00 2.6 15 Sudeste 30 Sudeste 0 -- -- 79
2020-03-16 05:00:00 3.3 13 Sur 30 Este 0 -- -- 73
2020-03-16 04:00:00 3.3 14 Sur 32 Sudeste 0 -- -- 73
2020-03-16 03:00:00 3.2 14 Sur 32 Sudeste 0.2 -- -- 76
2020-03-16 02:00:00 3.1 19 Sur 33 Sudeste 0 -- -- 77
2020-03-16 01:00:00 3.4 18 Sur 36 Sur 0 -- -- 77
2020-03-16 00:00:00 3.5 10 Sur 29 Sur 0 -- -- 77
2020-03-15 23:00:00 4.1 17 Sur 33 Sur 0 -- -- 72
2020-03-15 22:00:00 3.9 18 Sur 32 Sur 0 -- -- 78
2020-03-15 21:00:00 4.5 9 Sur 24 Sur 0 -- -- 77
2020-03-15 20:00:00 5.3 15 Sur 35 Sudeste 0 -- -- 80
2020-03-15 19:00:00 7.1 20 Sur 44 Sur 0 -- -- 82
2020-03-15 18:00:00 8.6 24 Sur 39 Sur 0 -- -- 74
2020-03-15 17:00:00 15.4 15 Norte 30 Oeste 0 -- -- 43
2020-03-15 16:00:00 16.1 10 Noroeste 35 Noroeste 0 -- -- 39
2020-03-15 15:00:00 16.9 12 Noroeste 33 Noroeste 0 -- -- 35
2020-03-15 14:00:00 16.1 14 Noroeste 34 Oeste 0 -- -- 41
2020-03-15 13:00:00 14.9 14 Noroeste 31 Noroeste 0 -- -- 46
2020-03-15 12:00:00 13.7 16 Norte 27 Norte 0 -- -- 51
2020-03-15 11:00:00 11.9 10 Noroeste 20 Noroeste 0 -- -- 53
2020-03-15 10:00:00 8.6 10 Oeste 17 Oeste 0 -- -- 66
2020-03-15 09:00:00 3.4 6 Este 13 Este 0 -- -- 84
2020-03-15 08:00:00 -1.1 4 Este 8 Este 0 -- -- 96
2020-03-15 07:00:00 -1.9 0 Calma 4 Norte 0 -- -- 94
2020-03-15 06:00:00 -1.6 2 Nordeste 6 Sudeste 0 -- -- 94
2020-03-15 05:00:00 -1.4 0 Calma 8 Este 0 -- -- 93
2020-03-15 04:00:00 -0.6 0 Calma 2 Nordeste 0 -- -- 91
2020-03-15 03:00:00 0.6 0 Calma 9 Este 0 -- -- 88
2020-03-15 02:00:00 1 0 Calma 15 Este 0 -- -- 86
2020-03-15 01:00:00 1.5 6 Este 10 Este 0 -- -- 87
2020-03-15 00:00:00 2.2 0 Calma 10 Este 0 -- -- 83
2020-03-14 23:00:00 3.6 3 Este 14 Este 0 -- -- 80
2020-03-14 22:00:00 4.5 0 Calma 8 Este 0 -- -- 79
2020-03-14 21:00:00 6.3 2 Este 7 Este 0 -- -- 70
2020-03-14 20:00:00 9.1 0 Calma 4 Este 0 -- -- 63
2020-03-14 19:00:00 12.6 2 Norte 12 Noroeste 0 -- -- 61
2020-03-14 18:00:00 15.7 7 Noroeste 13 Noroeste 0 -- -- 42
2020-03-14 17:00:00 16.3 5 Sudoeste 12 Sudoeste 0 -- -- 47
2020-03-14 16:00:00 15.7 6 Oeste 12 Sudoeste 0 -- -- 44
2020-03-14 15:00:00 14.5 4 Sur 12 Sur 0 -- -- 47
2020-03-14 14:00:00 13 4 Sudeste 12 Sur 0 -- -- 49
2020-03-14 13:00:00 11.1 5 Sudoeste 13 Sudeste 0 -- -- 58
2020-03-14 12:00:00 8.3 5 Sudoeste 12 Sudoeste 0 -- -- 73
2020-03-14 11:00:00 4.1 6 Oeste 9 Oeste 0 -- -- 99
2020-03-14 10:00:00 1.3 3 Sudoeste 6 Este 0 -- -- 100
2020-03-14 09:00:00 -1 5 Este 13 Este 0 -- -- 99
2020-03-14 08:00:00 -2.3 4 Este 14 Este 0 -- -- 98
2020-03-14 07:00:00 -2.6 9 Este 12 Este 0 -- -- 98
2020-03-14 06:00:00 -2 8 Este 14 Este 0 -- -- 97
2020-03-14 05:00:00 -2 8 Este 12 Este 0 -- -- 98
2020-03-14 04:00:00 -1.9 8 Este 13 Este 0 -- -- 97
2020-03-14 03:00:00 -1.6 3 Nordeste 17 Este 0 -- -- 96
2020-03-14 02:00:00 -1.4 0 Calma 13 Este 0 -- -- 96
2020-03-14 01:00:00 -0.8 11 Este 17 Este 0 -- -- 95
2020-03-14 00:00:00 0.6 4 Este 8 Este 0 -- -- 92
2020-03-13 23:00:00 2.5 2 Este 13 Sudoeste 0 -- -- 91
2020-03-13 22:00:00 3.7 10 Sur 19 Sudeste 0 -- -- 90
2020-03-13 21:00:00 4.1 9 Sur 19 Sur 0 -- -- 87
2020-03-13 20:00:00 5.1 12 Sur 25 Sur 0 -- -- 83
2020-03-13 19:00:00 6.5 15 Sur 39 Sur 0 -- -- 77
2020-03-13 18:00:00 7.6 20 Sur 37 Sur 0 -- -- 73
2020-03-13 17:00:00 8.4 24 Sur 41 Sur 0 -- -- 72
2020-03-13 16:00:00 8.8 22 Sur 42 Sur 0 -- -- 74
2020-03-13 15:00:00 9.5 23 Sur 42 Sur 0 -- -- 69
2020-03-13 14:00:00 9.2 19 Sur 37 Sudeste 0 -- -- 71
2020-03-13 13:00:00 7.8 16 Sur 31 Sur 0 -- -- 75
2020-03-13 12:00:00 7.4 15 Sur 31 Sur 0 -- -- 81
2020-03-13 11:00:00 7.4 12 Sur 34 Sur 0 -- -- 82
2020-03-13 10:00:00 6.5 12 Sur 23 Sur 0 -- -- 87
2020-03-13 09:00:00 5.4 8 Sur 25 Este 0 -- -- 92
2020-03-13 08:00:00 5.2 9 Sudeste 20 Sur 0 -- -- 90
2020-03-13 07:00:00 5.2 12 Sur 22 Sur 0 -- -- 91
2020-03-13 06:00:00 5.2 10 Sur 21 Sur 0 -- -- 92
2020-03-13 05:00:00 5.4 8 Sur 18 Este 0 -- -- 92
2020-03-13 04:00:00 5.4 7 Sur 23 Sur 0 -- -- 92
2020-03-13 03:00:00 5.5 10 Sur 24 Sudeste 0 -- -- 91
2020-03-13 02:00:00 5.7 12 Sudeste 24 Sur 0 -- -- 93
2020-03-13 01:00:00 6.1 13 Sur 24 Sur 0 -- -- 92
2020-03-13 00:00:00 6.1 12 Sur 24 Sur 0 -- -- 93
2020-03-12 23:00:00 6.3 8 Sur 27 Sur 0 -- -- 92
2020-03-12 22:00:00 6.5 10 Sur 22 Sur 0 -- -- 90
2020-03-12 21:00:00 6.7 10 Sur 27 Sudeste 0 -- -- 89
2020-03-12 20:00:00 7 16 Sur 32 Sur 0 -- -- 90
2020-03-12 19:00:00 8 16 Sur 37 Sur 0 -- -- 86
2020-03-12 18:00:00 9 21 Sur 39 Sudeste 0 -- -- 90
2020-03-12 17:00:00 10.2 22 Sur 43 Sur 0 -- -- 85
2020-03-12 16:00:00 10.8 21 Sur 42 Sur 0 -- -- 84
2020-03-12 15:00:00 11.6 23 Sur 37 Sur 0 -- -- 81
2020-03-12 14:00:00 12.3 19 Sur 33 Sur 0 -- -- 78
2020-03-12 13:00:00 11.6 19 Sur 33 Sur 0 -- -- 78
2020-03-12 12:00:00 11.9 17 Sur 30 Sur 0 -- -- 79
2020-03-12 11:00:00 10.2 16 Sudeste 27 Sur 0 -- -- 85
2020-03-12 10:00:00 8.9 10 Sur 21 Sur 0 -- -- 91
2020-03-12 09:00:00 8 10 Sur 19 Sur 0 -- -- 95
2020-03-12 08:00:00 7 9 Sur 21 Sudeste 0 -- -- 97
2020-03-12 07:00:00 7 10 Sur 21 Sudeste 0 -- -- 97
2020-03-12 06:00:00 3.7 2 Norte 8 Este 0 -- -- 94
2020-03-12 05:00:00 4.6 4 Este 10 Este 0 -- -- 92
2020-03-12 04:00:00 5.3 6 Este 10 Este 0 -- -- 91
2020-03-12 03:00:00 6.3 6 Este 13 Este 0 -- -- 88
2020-03-12 02:00:00 7.1 3 Este 10 Este 0 -- -- 88
2020-03-12 01:00:00 6.9 8 Este 14 Este 0 -- -- 88
2020-03-12 00:00:00 7.6 0 Calma 7 Este 0 -- -- 84
2020-03-11 23:00:00 8.7 0 Calma 5 Este 0 -- -- 85
2020-03-11 22:00:00 9.5 0 Calma 3 Norte 0 -- -- 79
2020-03-11 21:00:00 10.4 0 Calma 4 Norte 0 -- -- 76
2020-03-11 20:00:00 11.7 0 Calma 4 Noroeste 0 -- -- 77
2020-03-11 19:00:00 17.1 4 Noroeste 20 Noroeste 0 -- -- 57
2020-03-11 18:00:00 19.7 11 Noroeste 26 Oeste 0 -- -- 44
2020-03-11 17:00:00 20.2 14 Noroeste 28 Norte 0 -- -- 43
2020-03-11 16:00:00 20.2 12 Noroeste 34 Noroeste 0 -- -- 45
2020-03-11 15:00:00 19.5 14 Noroeste 28 Noroeste 0 -- -- 47
2020-03-11 14:00:00 18.1 18 Noroeste 29 Noroeste 0 -- -- 50
2020-03-11 13:00:00 17.1 12 Noroeste 25 Oeste 0 -- -- 51
2020-03-11 12:00:00 14.9 10 Oeste 18 Oeste 0 -- -- 58
2020-03-11 11:00:00 11.8 6 Oeste 13 Oeste 0 -- -- 68
2020-03-11 10:00:00 7.6 3 Noroeste 5 Noroeste 0 -- -- 78
2020-03-11 09:00:00 3.2 4 Este 13 Este 0 -- -- 91
2020-03-11 08:00:00 0 0 Calma 13 Este 0 -- -- 94
2020-03-11 07:00:00 0.6 6 Este 13 Este 0 -- -- 95
2020-03-11 06:00:00 1 5 Este 12 Este 0 -- -- 95
2020-03-11 05:00:00 1.6 4 Este 11 Este 0 -- -- 94
2020-03-11 04:00:00 2.2 9 Este 14 Este 0 -- -- 93
2020-03-11 03:00:00 2.6 10 Este 14 Este 0 -- -- 93
2020-03-11 02:00:00 3.8 0 Calma 10 Este 0 -- -- 90
2020-03-11 01:00:00 5.7 0 Calma 9 Sur 0 -- -- 90
2020-03-11 00:00:00 4.8 2 Norte 6 Noroeste 0 -- -- 92
2020-03-10 23:00:00 5.9 0 Calma 10 Este 0 -- -- 88
2020-03-10 22:00:00 8 9 Este 17 Este 0 -- -- 82
2020-03-10 21:00:00 9.6 0 Calma 12 Este 0 -- -- 79
2020-03-10 20:00:00 13.2 4 Oeste 16 Noroeste 0 -- -- 66
2020-03-10 19:00:00 15.8 8 Oeste 17 Oeste 0 -- -- 58
2020-03-10 18:00:00 18.2 8 Noroeste 25 Oeste 0 -- -- 50
2020-03-10 17:00:00 17.9 13 Oeste 30 Oeste 0 -- -- 56
2020-03-10 16:00:00 19 16 Oeste 31 Oeste 0 -- -- 46
2020-03-10 15:00:00 17.7 12 Oeste 21 Oeste 0 -- -- 54
2020-03-10 14:00:00 16.2 12 Oeste 23 Norte 0 -- -- 57
2020-03-10 13:00:00 14.2 13 Noroeste 26 Noroeste 0 -- -- 63
2020-03-10 12:00:00 12.6 11 Oeste 22 Noroeste 0 -- -- 65
2020-03-10 11:00:00 10 8 Oeste 15 Oeste 0 -- -- 74
2020-03-10 10:00:00 7 3 Noroeste 8 Noroeste 0 -- -- 83
2020-03-10 09:00:00 3 0 Calma 3 Nordeste 0 -- -- 98
2020-03-10 08:00:00 1.2 0 Calma 9 Este 0 -- -- 95
2020-03-10 07:00:00 1.9 6 Este 14 Este 0 -- -- 93
2020-03-10 06:00:00 1.6 0 Calma 2 Norte 0 -- -- 96
2020-03-10 05:00:00 2.1 5 Este 8 Este 0 -- -- 96
2020-03-10 04:00:00 1.3 0 Calma 4 Este 0 -- -- 96
2020-03-10 03:00:00 1.9 4 Este 10 Este 0 -- -- 96
2020-03-10 02:00:00 1.8 2 Sudeste 8 Este 0 -- -- 96
2020-03-10 01:00:00 2.4 0 Calma 9 Este 0 -- -- 94
2020-03-10 00:00:00 2.7 3 Este 8 Este 0 -- -- 93
2020-03-09 23:00:00 3.2 0 Calma 6 Este 0 -- -- 91
2020-03-09 22:00:00 3.9 3 Este 6 Este 0 -- -- 89
2020-03-09 21:00:00 5.5 0 Calma 15 Sudeste 0 -- -- 83
2020-03-09 20:00:00 6.7 8 Sudeste 16 Sudeste 0 -- -- 81
2020-03-09 19:00:00 8.4 8 Sudeste 18 Sudeste 0 -- -- 73
2020-03-09 18:00:00 9.6 8 Sudeste 17 Sudeste 0 -- -- 66
2020-03-09 17:00:00 10.5 10 Sur 19 Sudeste 0 -- -- 61
2020-03-09 16:00:00 10.4 10 Sur 15 Sur 0 -- -- 58
2020-03-09 15:00:00 10.7 9 Sur 14 Sudeste 0 -- -- 58
2020-03-09 14:00:00 11 6 Oeste 14 Oeste 0 -- -- 58
2020-03-09 13:00:00 10.5 7 Oeste 14 Sudoeste 0 -- -- 59
2020-03-09 12:00:00 8.2 4 Sudeste 13 Sudoeste 0 -- -- 67
2020-03-09 11:00:00 6.2 3 Noroeste 10 Nordeste 0 -- -- 88
2020-03-09 10:00:00 4.9 4 Norte 9 Norte 0 -- -- 96
2020-03-09 09:00:00 2.4 7 Este 17 Este 0 -- -- 99
2020-03-09 08:00:00 0.9 0 Calma 6 Este 0 -- -- 97
2020-03-09 07:00:00 1.7 3 Este 10 Este 0 -- -- 98
2020-03-09 06:00:00 2.5 4 Este 7 Este 0 -- -- 99
2020-03-09 05:00:00 1.9 0 Calma 3 Sudeste 0 -- -- 98
2020-03-09 04:00:00 2 0 Calma 8 Sudeste 0 -- -- 98
2020-03-09 03:00:00 1.6 0 Calma 3 Sudeste 0 -- -- 96
2020-03-09 02:00:00 2.3 2 Este 7 Sudeste 0 -- -- 95
2020-03-09 01:00:00 3.8 0 Calma 7 Sudoeste 0 -- -- 94
2020-03-09 00:00:00 4.8 3 Sur 12 Sudeste 0 -- -- 94
2020-03-08 23:00:00 5.1 5 Sudeste 19 Sur 0 -- -- 93
2020-03-08 22:00:00 6.2 10 Sur 22 Sudeste 0 -- -- 91
2020-03-08 21:00:00 7.1 13 Sur 33 Sur 0 -- -- 92
2020-03-08 20:00:00 7.4 18 Sudeste 32 Sur 0 -- -- 94
2020-03-08 19:00:00 11.4 3 Sudeste 32 Norte 0 -- -- 65
2020-03-08 18:00:00 13.3 14 Norte 29 Noroeste 0 -- -- 60
2020-03-08 17:00:00 13.1 17 Norte 34 Noroeste 0 -- -- 64
2020-03-08 16:00:00 13.1 18 Norte 37 Norte 0 -- -- 65
2020-03-08 15:00:00 12.5 16 Noroeste 31 Noroeste 0 -- -- 65
2020-03-08 14:00:00 11.4 17 Noroeste 27 Noroeste 0 -- -- 65
2020-03-08 13:00:00 9.2 11 Oeste 23 Oeste 0 -- -- 77
2020-03-08 12:00:00 9 9 Oeste 19 Oeste 0 -- -- 78
2020-03-08 11:00:00 6.3 9 Noroeste 14 Oeste 0 -- -- 89
2020-03-08 10:00:00 4.3 4 Noroeste 13 Noroeste 0 -- -- 93
2020-03-08 09:00:00 3.3 4 Oeste 14 Noroeste 0 -- -- 95
2020-03-08 08:00:00 1.9 2 Sudoeste 5 Este 0 -- -- 96
2020-03-08 07:00:00 2.2 0 Calma 9 Norte 0 -- -- 95
2020-03-08 06:00:00 2.7 10 Noroeste 15 Noroeste 0 -- -- 98
2020-03-08 05:00:00 0.4 3 Nordeste 13 Este 0 -- -- 95
2020-03-08 04:00:00 0.6 0 Calma 7 Nordeste 0 -- -- 95
2020-03-08 03:00:00 1.7 0 Calma 10 Noroeste 0 -- -- 92
2020-03-08 02:00:00 3.5 9 Noroeste 15 Noroeste 0 -- -- 94
2020-03-08 01:00:00 1.5 7 Noroeste 11 Noroeste 0 -- -- 97
2020-03-08 00:00:00 0.9 0 Calma 8 Este 0 -- -- 93
2020-03-07 23:00:00 1.5 0 Calma 7 Este 0 -- -- 92
2020-03-07 22:00:00 2.9 0 Calma 6 Este 0 -- -- 88
2020-03-07 21:00:00 5 0 Calma 10 Este 0 -- -- 82
2020-03-07 20:00:00 8.1 4 Oeste 10 Sudoeste 0 -- -- 76
2020-03-07 19:00:00 10.4 6 Oeste 19 Noroeste 0 -- -- 69
2020-03-07 18:00:00 11.8 8 Oeste 24 Oeste 0 -- -- 63
2020-03-07 17:00:00 12.5 11 Oeste 26 Noroeste 0 -- -- 60
2020-03-07 16:00:00 11.3 8 Oeste 17 Oeste 0 -- -- 64
2020-03-07 15:00:00 10.8 6 Oeste 19 Oeste 0 -- -- 66
2020-03-07 14:00:00 10.7 9 Oeste 17 Sudoeste 0 -- -- 64
2020-03-07 13:00:00 9.2 4 Sur 21 Sur 0 -- -- 72
2020-03-07 12:00:00 8.2 10 Sudoeste 19 Sur 0 -- -- 78
2020-03-07 11:00:00 6.4 8 Sur 14 Sur 0 -- -- 87
2020-03-07 10:00:00 4.2 2 Sudeste 5 Sudeste 0 -- -- 93
2020-03-07 09:00:00 2.7 2 Este 7 Este 0 -- -- 95
2020-03-07 08:00:00 2.1 4 Este 6 Este 0 -- -- 95
2020-03-07 07:00:00 2.3 2 Oeste 6 Sudeste 0 -- -- 94
2020-03-07 06:00:00 2.2 0 Calma 4 Sur 0.2 -- -- 92
2020-03-07 05:00:00 2.2 3 Nordeste 8 Norte 0.2 -- -- 90
2020-03-07 04:00:00 2.6 2 Norte 8 Noroeste 0 -- -- 86
2020-03-07 03:00:00 2.8 3 Sur 12 Noroeste 0 -- -- 81
2020-03-07 02:00:00 2.7 2 Noroeste 10 Noroeste 0 -- -- 79
2020-03-07 01:00:00 2.5 4 Oeste 9 Noroeste 0 -- -- 81
2020-03-07 00:00:00 1.4 4 Sur 19 Este 0 -- -- 84
2020-03-06 23:00:00 0.1 3 Este 8 Sudeste 0 -- -- 87
2020-03-06 22:00:00 1.1 2 Nordeste 12 Norte 0 -- -- 83
2020-03-06 21:00:00 2.5 5 Norte 14 Noroeste 0 -- -- 78
2020-03-06 20:00:00 3.5 3 Sudeste 19 Noroeste 0 -- -- 74
2020-03-06 19:00:00 4.3 5 Nordeste 19 Norte 0 -- -- 72
2020-03-06 18:00:00 6.3 6 Norte 25 Norte 0 -- -- 66
2020-03-06 17:00:00 6 12 Norte 26 Nordeste 0 -- -- 62
2020-03-06 16:00:00 7.4 13 Norte 32 Este 0 -- -- 56
2020-03-06 15:00:00 6.8 9 Norte 27 Este 0 -- -- 60
2020-03-06 14:00:00 6.2 10 Norte 32 Nordeste 0 -- -- 68
2020-03-06 13:00:00 5.8 12 Norte 27 Norte 0 -- -- 61
2020-03-06 12:00:00 3.9 13 Norte 26 Norte 0 -- -- 79
2020-03-06 11:00:00 2.8 6 Norte 19 Norte 0.6 -- -- 96
2020-03-06 10:00:00 1.3 9 Norte 15 Norte 1 -- -- 96
2020-03-06 09:00:00 1.3 4 Noroeste 21 Norte 1.2 -- -- 93
2020-03-06 08:00:00 2.3 10 Norte 20 Norte 0 -- -- 87
2020-03-06 07:00:00 2.7 6 Norte 26 Norte 0 -- -- 82
2020-03-06 06:00:00 2.6 19 Norte 34 Norte 0 -- -- 88
2020-03-06 05:00:00 2.6 13 Norte 37 Norte 0 -- -- 89
2020-03-06 04:00:00 3.5 8 Norte 29 Norte 0 -- -- 88
2020-03-06 03:00:00 3 12 Norte 24 Norte 0 -- -- 88
2020-03-06 02:00:00 3 9 Norte 25 Noroeste 0 -- -- 86
2020-03-06 01:00:00 3.3 15 Norte 25 Noroeste 0 -- -- 80
2020-03-06 00:00:00 4.1 15 Norte 26 Norte 0 -- -- 73
2020-03-05 23:00:00 1 2 Este 6 Sudeste 0 -- -- 88
2020-03-05 22:00:00 2.4 2 Nordeste 4 Noroeste 0 -- -- 84
2020-03-05 21:00:00 4 2 Este 9 Nordeste 0 -- -- 76
2020-03-05 20:00:00 5.6 4 Nordeste 19 Norte 0 -- -- 69
2020-03-05 19:00:00 7.7 4 Nordeste 18 Norte 0 -- -- 57
2020-03-05 18:00:00 9.2 6 Nordeste 24 Norte 0 -- -- 51
2020-03-05 17:00:00 9.7 9 Norte 22 Norte 0 -- -- 55
2020-03-05 16:00:00 11.4 9 Sudeste 26 Norte 0 -- -- 61
2020-03-05 15:00:00 11.7 19 Norte 41 Norte 0 -- -- 55
2020-03-05 14:00:00 12 21 Norte 54 Norte 0 -- -- 55
2020-03-05 13:00:00 11.4 24 Norte 47 Norte 0 -- -- 58
2020-03-05 12:00:00 10.3 24 Norte 59 Norte 0 -- -- 65
2020-03-05 11:00:00 9 36 Norte 60 Norte 0.2 -- -- 75
2020-03-05 10:00:00 8.4 27 Norte 50 Norte 0 -- -- 78
2020-03-05 09:00:00 9.1 17 Norte 43 Norte 1.2 -- -- 94
2020-03-05 08:00:00 9.2 15 Norte 44 Norte 0.2 -- -- 94
2020-03-05 07:00:00 9.9 16 Norte 49 Norte 0 -- -- 89
2020-03-05 06:00:00 10 16 Noroeste 45 Noroeste 0 -- -- 89
2020-03-05 05:00:00 10.4 22 Norte 50 Norte 0 -- -- 87
2020-03-05 04:00:00 10.4 18 Norte 42 Norte 0 -- -- 87
2020-03-05 03:00:00 10.3 12 Norte 35 Noroeste 0 -- -- 92
2020-03-05 02:00:00 10.2 21 Norte 34 Norte 0 -- -- 91
2020-03-05 01:00:00 10.5 9 Norte 22 Noroeste 0 -- -- 88
2020-03-05 00:00:00 10.7 11 Noroeste 24 Norte 0 -- -- 86
2020-03-04 23:00:00 11 11 Noroeste 26 Norte 0 -- -- 83
2020-03-04 22:00:00 11.3 14 Norte 28 Noroeste 0 -- -- 82
2020-03-04 21:00:00 11.5 5 Noroeste 17 Noroeste 0 -- -- 77
2020-03-04 20:00:00 12.3 5 Noroeste 19 Norte 0 -- -- 70
2020-03-04 19:00:00 13 9 Norte 23 Noroeste 0 -- -- 69
2020-03-04 18:00:00 14.2 14 Noroeste 33 Norte 0 -- -- 66
2020-03-04 17:00:00 14.3 15 Norte 31 Norte 0 -- -- 64
2020-03-04 16:00:00 15 17 Norte 34 Norte 0 -- -- 63
2020-03-04 15:00:00 15.2 16 Norte 32 Norte 0 -- -- 63
2020-03-04 14:00:00 15.6 19 Norte 33 Norte 0 -- -- 62
2020-03-04 13:00:00 13.7 18 Norte 33 Norte 0 -- -- 70
2020-03-04 12:00:00 13 15 Norte 32 Norte 0 -- -- 74
2020-03-04 11:00:00 11.3 14 Norte 25 Norte 0 -- -- 82
2020-03-04 10:00:00 10.7 11 Norte 30 Norte 0 -- -- 86
2020-03-04 09:00:00 9.6 11 Norte 21 Nordeste 0 -- -- 91
2020-03-04 08:00:00 9 4 Norte 16 Este 0 -- -- 95
2020-03-04 07:00:00 8.5 2 Sudeste 6 Sur 0 -- -- 96
2020-03-04 06:00:00 7.7 3 Sudoeste 8 Norte 0 -- -- 96
2020-03-04 05:00:00 7.4 3 Norte 20 Norte 0 -- -- 94
2020-03-04 04:00:00 7.4 6 Noroeste 14 Noroeste 0 -- -- 90
2020-03-04 03:00:00 5.8 3 Este 9 Este 0 -- -- 96
2020-03-04 02:00:00 5.4 0 Calma 8 Este 0 -- -- 95
2020-03-04 01:00:00 5.1 4 Este 12 Sudeste 0 -- -- 94
2020-03-04 00:00:00 5.2 6 Este 10 Este 0 -- -- 93
2020-03-03 23:00:00 5.7 0 Calma 8 Sur 0 -- -- 91
2020-03-03 22:00:00 6.6 0 Calma 22 Sur 0 -- -- 88
2020-03-03 21:00:00 7.5 9 Sur 23 Sudoeste 0 -- -- 86
2020-03-03 20:00:00 8.2 9 Sudoeste 31 Sudeste 0 -- -- 83
2020-03-03 19:00:00 9.6 16 Sur 26 Sur 0 -- -- 77
2020-03-03 18:00:00 14.9 4 Nordeste 25 Norte 0 -- -- 39
2020-03-03 17:00:00 16 14 Norte 43 Norte 0 -- -- 34
2020-03-03 16:00:00 17.1 16 Norte 38 Norte 0 -- -- 32
2020-03-03 15:00:00 17 19 Norte 48 Norte 0 -- -- 35
2020-03-03 14:00:00 14.7 30 Norte 51 Norte 0 -- -- 64
2020-03-03 13:00:00 10.9 30 Norte 51 Norte 0 -- -- 80
2020-03-03 12:00:00 8.6 26 Norte 53 Norte 0 -- -- 87
2020-03-03 11:00:00 7.8 28 Norte 49 Norte 0 -- -- 87
2020-03-03 10:00:00 5.9 27 Norte 42 Norte 0 -- -- 90
2020-03-03 09:00:00 4.5 25 Norte 52 Norte 0.2 -- -- 93
2020-03-03 08:00:00 3.7 20 Norte 35 Norte 0.6 -- -- 95
2020-03-03 07:00:00 2.3 9 Nordeste 22 Nordeste 0.6 -- -- 97
2020-03-03 06:00:00 1.3 6 Norte 20 Norte 1.8 -- -- 95
2020-03-03 05:00:00 1.9 9 Norte 23 Norte 1 -- -- 93
2020-03-03 04:00:00 2.5 6 Norte 26 Norte 0 -- -- 91
2020-03-03 03:00:00 2.8 12 Norte 21 Norte 0 -- -- 86
2020-03-03 02:00:00 2.5 7 Noroeste 36 Nordeste 0 -- -- 86
2020-03-03 01:00:00 1.7 18 Norte 31 Norte 0 -- -- 87
2020-03-03 00:00:00 1.6 4 Oeste 15 Norte 0 -- -- 82
2020-03-02 23:00:00 2.1 9 Norte 17 Noroeste 0 -- -- 74
2020-03-02 22:00:00 1.9 6 Noroeste 14 Norte 0 -- -- 69
2020-03-02 21:00:00 2.9 9 Noroeste 30 Noroeste 0 -- -- 64
2020-03-02 20:00:00 3.7 15 Norte 43 Noroeste 0 -- -- 58
2020-03-02 19:00:00 4.5 10 Norte 30 Norte 0 -- -- 61
2020-03-02 18:00:00 6 19 Norte 35 Norte 0 -- -- 56
2020-03-02 17:00:00 6.6 9 Norte 26 Norte 0 -- -- 58
2020-03-02 16:00:00 6.1 6 Norte 42 Norte 0 -- -- 54
2020-03-02 15:00:00 6.6 18 Norte 46 Norte 0 -- -- 51
2020-03-02 14:00:00 7.3 22 Norte 41 Nordeste 0 -- -- 52
2020-03-02 13:00:00 6.4 11 Nordeste 44 Norte 0 -- -- 70
2020-03-02 12:00:00 7.1 22 Norte 35 Norte 0 -- -- 62
2020-03-02 11:00:00 5.7 11 Norte 26 Norte 0 -- -- 73
2020-03-02 10:00:00 4.3 10 Norte 21 Nordeste 0 -- -- 86
2020-03-02 09:00:00 3.9 5 Nordeste 15 Este 0 -- -- 86
2020-03-02 08:00:00 3.7 8 Norte 19 Norte 0 -- -- 94
2020-03-02 07:00:00 4 4 Nordeste 32 Norte 0.6 -- -- 95
2020-03-02 06:00:00 5 8 Nordeste 22 Norte 0 -- -- 96
2020-03-02 05:00:00 5.5 4 Norte 34 Norte 0.4 -- -- 97
2020-03-02 04:00:00 6.4 10 Norte 96 Norte 5.2 -- -- 95
2020-03-02 03:00:00 9.2 25 Noroeste 57 Noroeste 2.2 -- -- 93
2020-03-02 02:00:00 9.1 21 Noroeste 56 Noroeste 3.2 -- -- 94
2020-03-02 01:00:00 8.7 23 Norte 50 Noroeste 2.6 -- -- 93
2020-03-02 00:00:00 7 13 Norte 32 Norte 3.4 -- -- 95